Latest Coastal Weather Observations for Wyndham Airport

IDW60701

Issued at 7:13 pm WST Sunday 9 August 2020 (issued every 10 minutes, with the page automatically refreshed every 10 minutes)

About coastal observations | Map of coastal stations | Coastal observations for WA | Marine services | Other Formats
Station Details ID: 001006 Name: WYNDHAM AERO Lat: -15.51 Lon: 128.15 Height: 3.8 m
Data from the previous 72 hours. | See also: Recent months at Wyndham Airport
Date/Time
WST
Wind Sea
Height
m
Swell Vis
km
Cloud Weather Temp
°C
Press
hPa
Rain since
9am
mm
Dir  Spd
kts
Gust
kts
Height
m
Period
s
Dir
09/07:00pm E 7 7 - - - - - - - 24.2 1013.0 0.0
09/06:30pm ENE 5 6 - - - - - - - 25.6 1012.8 0.0
09/06:00pm ENE 5 5 - - - - - - - 26.6 1012.5 0.0
09/05:30pm ENE 4 5 - - - - - - - 28.7 1012.3 0.0
09/05:00pm ENE 4 5 - - - - - - - 30.8 1012.2 0.0
09/04:30pm ENE 5 7 - - - - - - - 31.6 1011.9 0.0
09/04:00pm ESE 5 8 - - - - - - - 32.2 1011.9 0.0
09/03:30pm E 5 9 - - - - - - - 31.8 1011.9 0.0
09/03:00pm ENE 6 11 - - - - - - - 31.9 1011.8 0.0
09/02:30pm ESE 7 11 - - - - - - - 32.5 1011.9 0.0
09/02:00pm ESE 7 11 - - - - - - - 32.3 1012.2 0.0
09/01:30pm SE 8 14 - - - - - - - 32.6 1012.5 0.0
09/01:00pm ENE 8 13 - - - - - - - 31.7 1012.9 0.0
09/12:30pm E 9 14 - - - - - - - 31.4 1013.4 0.0
09/12:00pm E 9 13 - - - - - - - 31.3 1013.8 0.0
09/11:30am ENE 8 14 - - - - - - - 31.1 1014.3 0.0
09/11:00am ESE 10 15 - - - - - - - 30.8 1015.0 0.0
09/10:30am ESE 11 15 - - - - - - - 30.3 1015.6 0.0
09/10:00am E 10 14 - - - - - - - 29.5 1016.0 0.0
09/09:30am E 12 19 - - - - - - - 28.3 1016.5 0.0
09/09:00am E 13 18 - - - - - - - 27.2 1016.5 0.0
09/08:30am SE 7 11 - - - - - - - 25.7 1016.5 0.0
09/08:00am S 3 4 - - - - - - - 23.4 1016.5 0.0
09/07:30am CALM 0 0 - - - - - - - 21.2 1016.4 0.0
09/07:00am CALM 0 0 - - - - - - - 19.1 1016.2 0.0
09/06:30am CALM 0 0 - - - - - - - 16.1 1016.0 0.0
09/06:00am S 7 7 - - - - - - - 16.5 1015.6 0.0
09/05:30am ESE 5 8 - - - - - - - 12.9 1015.1 0.0
09/05:00am E 3 4 - - - - - - - 12.3 1014.7 0.0
09/04:30am CALM 0 0 - - - - - - - 13.2 1014.3 0.0
09/04:00am CALM 0 0 - - - - - - - 12.7 1014.1 0.0
09/03:30am CALM 0 0 - - - - - - - 13.0 1014.0 0.0
09/03:00am CALM 0 0 - - - - - - - 13.6 1014.0 0.0
09/02:30am CALM 0 0 - - - - - - - 13.3 1013.8 0.0
09/02:00am E 3 5 - - - - - - - 14.3 1013.9 0.0
09/01:30am CALM 0 3 - - - - - - - 14.9 1013.8 0.0
09/01:00am E 1 5 - - - - - - - 14.4 1013.9 0.0
09/12:30am CALM 0 0 - - - - - - - 15.5 1013.9 0.0
09/12:00am CALM 0 0 - - - - - - - 16.8 1014.0 0.0
 
Date/Time
WST
Wind Sea
Height
m
Swell Vis
km
Cloud Weather Temp
°C
Press
hPa
Rain since
9am
mm
Dir  Spd
kts
Gust
kts
Height
m
Period
s
Dir
08/11:30pm CALM 0 0 - - - - - - - 17.5 1014.0 0.0
08/11:00pm E 2 5 - - - - - - - 16.6 1014.0 0.0
08/10:30pm E 4 6 - - - - - - - 18.6 1013.9 0.0
08/10:00pm E 5 6 - - - - - - - 18.7 1014.1 0.0
08/09:30pm ENE 6 7 - - - - - - - 18.6 1014.2 0.0
08/09:00pm E 4 5 - - - - - - - 19.6 1014.1 0.0
08/08:30pm E 5 6 - - - - - - - 19.2 1014.0 0.0
08/08:00pm ENE 7 8 - - - - - - - 22.8 1013.7 0.0
08/07:30pm E 7 8 - - - - - - - 23.2 1013.6 0.0
08/07:00pm E 7 9 - - - - - - - 22.8 1013.4 0.0
08/06:30pm E 8 8 - - - - - - - 23.7 1013.2 0.0
08/06:00pm ESE 8 8 - - - - - - - 23.9 1012.7 0.0
08/05:30pm ESE 8 8 - - - - - - - 25.7 1012.4 0.0
08/05:00pm ESE 9 11 - - - - - - - 29.0 1012.3 0.0
08/04:30pm SE 8 12 - - - - - - - 30.3 1012.1 0.0
08/04:00pm ESE 7 11 - - - - - - - 30.9 1011.9 0.0
08/03:30pm SE 7 14 - - - - - - - 31.1 1011.6 0.0
08/03:00pm ESE 7 11 - - - - - - - 31.1 1011.6 0.0
08/02:30pm SE 7 13 - - - - - - - 31.4 1011.6 0.0
08/02:00pm SSE 8 13 - - - - - - - 31.7 1011.7 0.0
08/01:30pm SE 8 13 - - - - - - - 30.9 1011.9 0.0
08/01:00pm SE 8 13 - - - - - - - 31.0 1012.3 0.0
08/12:30pm E 9 12 - - - - - - - 30.8 1012.9 0.0
08/12:00pm ESE 9 14 - - - - - - - 29.9 1013.4 0.0
08/11:30am ESE 8 14 - - - - - - - 29.6 1014.0 0.0
08/11:00am SE 9 13 - - - - - - - 28.8 1014.5 0.0
08/10:30am SE 11 15 - - - - - - - 28.5 1014.9 0.0
08/10:00am SE 12 18 - - - - - - - 27.9 1015.2 0.0
08/09:30am ESE 12 15 - - - - - - - 27.6 1015.5 0.0
08/09:00am SE 14 18 - - - - - - - 27.1 1015.6 0.0
08/08:30am ESE 15 19 - - - - - - - 25.8 1015.6 0.0
08/08:00am ESE 15 19 - - - - - - - 25.1 1015.5 0.0
08/07:30am ESE 12 16 - - - - - - - 24.1 1015.3 0.0
08/07:00am E 1 3 - - - - - - - 21.1 1015.3 0.0
08/06:30am E 4 5 - - - - - - - 17.0 1015.2 0.0
08/06:00am E 4 5 - - - - - - - 19.4 1015.0 0.0
08/05:30am E 5 6 - - - - - - - 17.2 1014.8 0.0
08/05:00am E 3 4 - - - - - - - 15.6 1014.5 0.0
08/04:30am E 5 6 - - - - - - - 13.7 1014.4 0.0
08/04:00am E 5 6 - - - - - - - 15.5 1014.3 0.0
08/03:30am ENE 7 8 - - - - - - - 18.5 1014.1 0.0
08/03:00am ENE 6 7 - - - - - - - 18.1 1013.9 0.0
08/02:30am E 7 8 - - - - - - - 18.5 1013.9 0.0
08/02:00am E 8 8 - - - - - - - 19.1 1013.8 0.0
08/01:30am E 6 7 - - - - - - - 17.1 1013.8 0.0
08/01:00am ESE 7 11 - - - - - - - 15.3 1014.0 0.0
08/12:30am CALM 0 0 - - - - - - - 16.0 1013.6 0.0
08/12:00am CALM 0 0 - - - - - - - 18.1 1013.7 0.0
 
Date/Time
WST
Wind Sea
Height
m
Swell Vis
km
Cloud Weather Temp
°C
Press
hPa
Rain since
9am
mm
Dir  Spd
kts
Gust
kts
Height
m
Period
s
Dir
07/11:30pm SE 3 4 - - - - - - - 18.0 1013.8 0.0
07/11:00pm ESE 7 8 - - - - - - - 18.1 1013.9 0.0
07/10:30pm ESE 7 9 - - - - - - - 18.9 1014.0 0.0
07/10:00pm ESE 8 10 - - - - - - - 19.8 1014.1 0.0
07/09:30pm ESE 8 10 - - - - - - - 20.3 1014.0 0.0
07/09:00pm ESE 9 9 - - - - - - - 21.0 1014.0 0.0
07/08:30pm ESE 7 9 - - - - - - - 21.1 1013.8 0.0
07/08:00pm ESE 8 9 - - - - - - - 20.3 1013.6 0.0
07/07:30pm ESE 7 9 - - - - - - - 22.1 1013.4 0.0
07/07:00pm CALM 0 0 - - - - - - - 22.3 1013.1 0.0
07/06:30pm CALM 0 0 - - - - - - - 23.4 1012.8 0.0
07/06:00pm NE 5 5 - - - - - - - 25.9 1012.4 0.0
07/05:30pm E 6 8 - - - - - - - 26.4 1011.9 0.0
07/05:00pm E 3 6 - - - - - - - 28.5 1011.5 0.0
07/04:30pm E 3 5 - - - - - - - 30.6 1011.3 0.0
07/04:00pm ESE 2 7 - - - - - - - 30.6 1011.2 0.0
07/03:30pm ESE 3 6 - - - - - - - 31.0 1011.1 0.0
07/03:00pm W 4 6 - - - - - - - 30.8 1011.2 0.0
07/02:30pm ESE 6 11 - - - - - - - 30.5 1011.3 0.0
07/02:00pm SE 6 11 - - - - - - - 30.2 1011.5 0.0
07/01:30pm SSE 5 10 - - - - - - - 30.0 1011.8 0.0
07/01:00pm ESE 8 12 - - - - - - - 29.6 1012.0 0.0
07/12:30pm ESE 8 13 - - - - - - - 29.3 1012.5 0.0
07/12:00pm ESE 9 14 - - - - - - - 29.1 1012.9 0.0
07/11:30am ESE 10 17 - - - - - - - 28.4 1013.5 0.0
07/11:00am E 10 14 - - - - - - - 27.8 1013.9 0.0
07/10:30am SE 9 14 - - - - - - - 27.7 1014.3 0.0
07/10:00am ESE 9 14 - - - - - - - 26.4 1014.6 0.0
07/09:30am SE 12 15 - - - - - - - 26.1 1014.7 0.0
07/09:00am SE 12 15 - - - - - - - 25.4 1014.9 0.0
07/08:30am ESE 13 17 - - - - - - - 24.6 1015.0 0.0
07/08:00am SE 13 18 - - - - - - - 23.9 1014.8 0.0
07/07:30am ESE 5 8 - - - - - - - 22.7 1014.5 0.0
07/07:00am ENE 6 7 - - - - - - - 21.7 1014.4 0.0
07/06:30am ENE 6 7 - - - - - - - 19.1 1014.0 0.0
07/06:00am E 7 9 - - - - - - - 17.6 1013.8 0.0
07/05:30am E 9 10 - - - - - - - 18.0 1013.4 0.0
07/05:00am E 8 8 - - - - - - - 17.9 1012.9 0.0
07/04:30am E 5 6 - - - - - - - 18.9 1012.6 0.0
07/04:00am E 5 6 - - - - - - - 17.5 1012.4 0.0
07/03:30am E 7 8 - - - - - - - 17.6 1012.2 0.0
07/03:00am SE 7 7 - - - - - - - 17.4 1012.1 0.0
07/02:30am E 7 8 - - - - - - - 19.0 1011.8 0.0
07/02:00am E 7 8 - - - - - - - 18.3 1011.7 0.0
07/01:30am ESE 9 10 - - - - - - - 20.0 1011.6 0.0
07/01:00am ESE 10 11 - - - - - - - 20.9 1011.5 0.0
07/12:30am E 7 8 - - - - - - - 19.9 1011.4 0.0
07/12:00am E 1 3 - - - - - - - 20.3 1011.6 0.0
 
Date/Time
WST
Wind Sea
Height
m
Swell Vis
km
Cloud Weather Temp
°C
Press
hPa
Rain since
9am
mm
Dir  Spd
kts
Gust
kts
Height
m
Period
s
Dir
06/11:30pm E 7 8 - - - - - - - 21.0 1011.6 0.0
06/11:00pm ESE 10 11 - - - - - - - 21.5 1011.3 0.0
06/10:30pm ESE 10 12 - - - - - - - 22.0 1011.3 0.0
06/10:00pm ESE 10 11 - - - - - - - 22.4 1011.3 0.0
06/09:30pm SE 9 10 - - - - - - - 23.3 1011.3 0.0
06/09:00pm ESE 7 9 - - - - - - - 24.1 1011.1 0.0
06/08:30pm ENE 5 7 - - - - - - - 23.9 1011.1 0.0
06/08:00pm NE 8 9 - - - - - - - 25.7 1010.8 0.0
06/07:30pm SSW 2 4 - - - - - - - 26.0 1010.5 0.0

Other formats

Comma delimited format used in spreadsheet applications
http://www.bom.gov.au/fwo/IDW60701/IDW60701.95214.axf

JavaScript Object Notation format (JSON) in row-major order
http://www.bom.gov.au/fwo/IDW60701/IDW60701.95214.json

Data quality

Most of these data are generated automatically and are frequently updated. Quality checks on data are not normally performed. It is possible for incorrect values to appear. Refer to information at About Latest Weather Observations and please check the disclaimer before using these data.